Fairhaven, Massachusetts
Current Conditions -  °F | °C
As of 8:53 PM on Wednesday 17 Dec 2014 (Local Time) from KEWB Reporting Station
Scattered Clouds Scattered Clouds  
Wind Chill: 40°   Ceiling: Unl
Heat Index: 44°   Visibility: 10mi
Dew Point: 37°   Wind: 8mph
Humidity: 76%   Direction: 260°W
Pressure: 29.74"   Gusts: NA
Location:  41.64°N, 70.9°W
Report Text: KEWB 180153Z 26007KT 10SM FEW060 SCT080 07/03 A2974 RMK AO2 SLP072 T00670028
Loading
Personal Weather Stations






























Interactive Weather Map New forecast layout! Learn more

10-Day Weather Forecast

Advertisements
Track Severe Weather on mobile